Bom Jardim, Brazil
Current Conditions -  °F | °C
As of 12:00 PM on Saturday 20 Dec 2014 (Local Time) from SBTE Reporting Station
Scattered Clouds Scattered Clouds  
Wind Chill: 90°   Ceiling: Unl
Heat Index: 95°   Visibility: 6mi
Dew Point: 70°   Wind: 5mph
Humidity: 52%   Direction: 170°S
Pressure: 29.85"   Gusts: NA
Location:  4.74°S, 44.35°W
Report Text: SBTE 201500Z 17004KT 9999 SCT035 SCT080 32/21 Q1011
Loading
Personal Weather Stations






























Interactive Weather Map New forecast layout! Learn more

10-Day Weather Forecast

Advertisements
Track Severe Weather on mobile